createdAt,value
2022-08-09T00:00:04.202Z,19.90
2022-08-09T00:00:57.370Z,19.84
2022-08-09T00:01:57.377Z,19.89
2022-08-09T00:02:57.317Z,19.97
2022-08-09T00:04:00.463Z,19.89
2022-08-09T00:05:03.250Z,19.90
2022-08-09T00:06:16.058Z,19.92
2022-08-09T00:06:57.257Z,19.87
2022-08-09T00:07:57.237Z,19.89
2022-08-09T00:08:57.714Z,19.92
2022-08-09T00:09:57.211Z,19.94
2022-08-09T00:10:58.173Z,19.94
2022-08-09T00:12:03.543Z,19.93
2022-08-09T00:12:57.163Z,19.99
2022-08-09T00:13:57.147Z,20.08
2022-08-09T00:14:57.135Z,20.04
2022-08-09T00:15:59.133Z,20.05
2022-08-09T00:16:57.099Z,20.07
2022-08-09T00:18:07.713Z,20.12
2022-08-09T00:18:57.074Z,20.12
2022-08-09T00:19:57.061Z,20.05
2022-08-09T00:20:57.049Z,19.94
2022-08-09T00:21:57.199Z,19.94
2022-08-09T00:22:57.014Z,19.89
2022-08-09T00:23:59.898Z,19.89
2022-08-09T00:24:56.984Z,19.81
2022-08-09T00:25:56.968Z,19.74
2022-08-09T00:26:57.441Z,19.68
2022-08-09T00:27:56.933Z,19.63
2022-08-09T00:28:56.923Z,19.64
2022-08-09T00:30:16.520Z,19.62
2022-08-09T00:30:56.898Z,19.53
2022-08-09T00:32:00.910Z,19.52
2022-08-09T00:32:56.860Z,19.49
2022-08-09T00:33:56.843Z,19.49
2022-08-09T00:34:56.836Z,19.54
2022-08-09T00:35:56.812Z,19.44
2022-08-09T00:36:56.807Z,19.49
2022-08-09T00:37:56.784Z,19.53
2022-08-09T00:38:56.774Z,19.52
2022-08-09T00:40:13.403Z,19.42
2022-08-09T00:40:58.105Z,19.50
2022-08-09T00:44:10.713Z,19.54
2022-08-09T00:44:13.140Z,19.54
2022-08-09T00:44:14.503Z,19.50
2022-08-09T00:44:56.689Z,19.50
2022-08-09T00:45:56.661Z,19.49
2022-08-09T00:47:04.522Z,19.52
2022-08-09T00:47:56.628Z,19.52
2022-08-09T00:48:56.611Z,19.52
2022-08-09T00:49:56.901Z,19.52
2022-08-09T00:50:56.585Z,19.52
2022-08-09T00:51:56.563Z,19.54
2022-08-09T00:52:56.550Z,19.50
2022-08-09T00:53:56.537Z,19.54
2022-08-09T00:54:56.523Z,19.53
2022-08-09T00:56:04.862Z,19.53
2022-08-09T00:56:56.491Z,19.50
2022-08-09T00:57:59.485Z,19.50
2022-08-09T00:58:56.461Z,19.53
2022-08-09T00:59:56.441Z,19.54
2022-08-09T01:00:58.200Z,19.47
2022-08-09T01:01:56.478Z,19.53
2022-08-09T01:02:56.400Z,19.54
2022-08-09T01:03:56.608Z,19.49
2022-08-09T01:04:56.376Z,19.52
2022-08-09T01:05:56.351Z,19.52
2022-08-09T01:06:56.335Z,19.60
2022-08-09T01:08:01.055Z,19.53
2022-08-09T01:08:56.359Z,19.56
2022-08-09T01:09:56.287Z,19.50
2022-08-09T01:10:56.274Z,19.45
2022-08-09T01:11:56.259Z,19.42
2022-08-09T01:12:56.238Z,19.42
2022-08-09T01:13:58.834Z,19.44
2022-08-09T01:14:56.215Z,19.39
2022-08-09T01:15:56.198Z,19.42
2022-08-09T01:16:56.178Z,19.37
2022-08-09T01:17:57.679Z,19.31
2022-08-09T01:19:02.555Z,19.41
2022-08-09T01:20:01.860Z,19.32
2022-08-09T01:20:56.117Z,19.30
2022-08-09T01:21:56.101Z,19.34
2022-08-09T01:22:56.088Z,19.37
2022-08-09T01:24:02.425Z,19.32
2022-08-09T01:24:56.689Z,19.37
2022-08-09T01:25:56.068Z,19.35
2022-08-09T01:26:56.023Z,19.37
2022-08-09T01:27:57.106Z,19.35
2022-08-09T01:28:55.992Z,19.35
2022-08-09T01:29:56.806Z,19.41
2022-08-09T01:30:58.240Z,19.35
2022-08-09T01:32:31.927Z,19.47
2022-08-09T01:32:55.927Z,19.34
2022-08-09T01:33:55.914Z,19.44
2022-08-09T01:34:55.895Z,19.38
2022-08-09T01:35:55.882Z,19.39
2022-08-09T01:36:55.872Z,19.42
2022-08-09T01:38:08.079Z,19.42
2022-08-09T01:38:55.841Z,19.37
2022-08-09T01:39:55.820Z,19.49
2022-08-09T01:41:04.975Z,19.37
2022-08-09T01:42:02.196Z,19.34
2022-08-09T01:42:55.775Z,19.37
2022-08-09T01:43:55.755Z,19.30
2022-08-09T01:44:55.839Z,19.37
2022-08-09T01:45:58.002Z,19.22
2022-08-09T01:46:55.713Z,19.30
2022-08-09T01:47:55.693Z,19.22
2022-08-09T01:48:55.679Z,19.27
2022-08-09T01:49:55.665Z,19.27
2022-08-09T01:50:55.654Z,19.24
2022-08-09T01:51:55.630Z,19.26
2022-08-09T01:52:55.619Z,19.17
2022-08-09T01:53:58.118Z,19.17
2022-08-09T01:54:55.582Z,19.32
2022-08-09T01:55:55.568Z,19.20
2022-08-09T01:56:55.550Z,19.17
2022-08-09T01:57:55.537Z,19.12
2022-08-09T01:58:55.534Z,19.13
2022-08-09T02:00:00.225Z,19.12
2022-08-09T02:00:55.563Z,19.09
2022-08-09T02:01:59.872Z,19.01
2022-08-09T02:02:55.465Z,19.05
2022-08-09T02:03:55.447Z,19.13
2022-08-09T02:04:55.427Z,19.15
2022-08-09T02:06:03.642Z,19.16
2022-08-09T02:06:58.625Z,19.08
2022-08-09T02:08:40.365Z,19.08
2022-08-09T02:08:58.944Z,19.13
2022-08-09T02:09:59.622Z,19.13
2022-08-09T02:10:55.377Z,19.13
2022-08-09T02:11:55.316Z,19.16
2022-08-09T02:12:55.303Z,19.17
2022-08-09T02:14:07.731Z,19.08
2022-08-09T02:14:55.827Z,19.07
2022-08-09T02:15:55.252Z,19.00
2022-08-09T02:16:59.812Z,18.91
2022-08-09T02:18:01.005Z,18.94
2022-08-09T02:18:55.202Z,18.85
2022-08-09T02:19:55.192Z,18.93
2022-08-09T02:20:55.174Z,18.83
2022-08-09T02:21:55.861Z,18.85
2022-08-09T02:22:55.148Z,18.85
2022-08-09T02:23:55.126Z,18.88
2022-08-09T02:24:55.115Z,18.88
2022-08-09T02:25:55.816Z,18.89
2022-08-09T02:26:55.083Z,18.91
2022-08-09T02:28:00.350Z,18.76
2022-08-09T02:28:55.047Z,18.68
2022-08-09T02:29:55.030Z,18.71
2022-08-09T02:30:55.020Z,18.68
2022-08-09T02:31:55.000Z,18.67
2022-08-09T02:32:54.990Z,18.60
2022-08-09T02:34:06.897Z,18.66
2022-08-09T02:34:55.851Z,18.61
2022-08-09T02:36:02.681Z,18.60
2022-08-09T02:36:54.920Z,18.63
2022-08-09T02:37:54.906Z,18.63
2022-08-09T02:38:54.899Z,18.61
2022-08-09T02:39:55.210Z,18.52
2022-08-09T02:40:54.901Z,18.49
2022-08-09T02:41:54.842Z,18.54
2022-08-09T02:42:54.832Z,18.63
2022-08-09T02:43:55.586Z,18.64
2022-08-09T02:44:54.797Z,18.51
2022-08-09T02:45:54.775Z,18.51
2022-08-09T02:46:54.770Z,18.56
2022-08-09T02:47:59.401Z,18.45
2022-08-09T02:48:54.730Z,18.46
2022-08-09T02:50:01.351Z,18.41
2022-08-09T02:50:56.515Z,18.42
2022-08-09T02:51:54.682Z,18.42
2022-08-09T02:52:55.275Z,18.28
2022-08-09T02:54:00.484Z,18.21
2022-08-09T02:54:57.103Z,18.26
2022-08-09T02:55:58.244Z,18.24
2022-08-09T02:56:57.263Z,18.20
2022-08-09T02:58:32.128Z,18.24
2022-08-09T02:58:54.571Z,18.18
2022-08-09T03:00:25.128Z,18.20
2022-08-09T03:00:58.686Z,18.12
2022-08-09T03:02:05.715Z,18.13
2022-08-09T03:03:00.381Z,18.20
2022-08-09T03:04:16.771Z,18.17
2022-08-09T03:04:54.502Z,18.17
2022-08-09T03:05:55.582Z,18.28
2022-08-09T03:06:54.444Z,18.28
2022-08-09T03:07:55.022Z,18.20
2022-08-09T03:08:54.413Z,18.26
2022-08-09T03:09:56.731Z,18.23
2022-08-09T03:10:54.375Z,18.26
2022-08-09T03:12:05.921Z,18.17
2022-08-09T03:12:54.345Z,18.20
2022-08-09T03:13:58.423Z,18.15
2022-08-09T03:14:54.314Z,18.13
2022-08-09T03:16:06.172Z,18.06
2022-08-09T03:16:54.279Z,18.17
2022-08-09T03:17:57.913Z,18.02
2022-08-09T03:18:55.684Z,18.01
2022-08-09T03:20:02.742Z,18.01
2022-08-09T03:20:54.209Z,18.02
2022-08-09T03:21:54.196Z,18.03
2022-08-09T03:22:56.935Z,18.03
2022-08-09T03:24:04.428Z,18.02
2022-08-09T03:25:05.640Z,18.09
2022-08-09T03:25:59.207Z,18.11
2022-08-09T03:26:54.110Z,18.11
2022-08-09T03:27:55.493Z,18.05
2022-08-09T03:28:55.116Z,18.02
2022-08-09T03:29:57.934Z,18.03
2022-08-09T03:30:54.048Z,18.03
2022-08-09T03:32:00.258Z,18.11
2022-08-09T03:32:54.015Z,18.06
2022-08-09T03:33:56.597Z,18.02
2022-08-09T03:34:55.762Z,18.06
2022-08-09T03:36:16.572Z,18.01
2022-08-09T03:36:59.463Z,18.06
2022-08-09T03:37:56.051Z,17.96
2022-08-09T03:38:53.972Z,17.96
2022-08-09T03:39:55.649Z,17.94
2022-08-09T03:40:53.884Z,17.97
2022-08-09T03:42:06.132Z,17.87
2022-08-09T03:42:53.848Z,17.88
2022-08-09T03:44:08.540Z,18.01
2022-08-09T03:44:53.815Z,18.01
2022-08-09T03:46:04.649Z,18.01
2022-08-09T03:46:53.780Z,18.13
2022-08-09T03:47:53.768Z,18.03
2022-08-09T03:48:53.785Z,17.99
2022-08-09T03:49:58.428Z,18.06
2022-08-09T03:50:53.717Z,18.02
2022-08-09T03:51:58.651Z,18.12
2022-08-09T03:52:53.686Z,18.11
2022-08-09T03:53:53.665Z,18.01
2022-08-09T03:54:53.652Z,18.06
2022-08-09T03:55:53.637Z,18.01
2022-08-09T03:56:53.622Z,18.08
2022-08-09T03:58:03.359Z,18.08
2022-08-09T03:58:54.689Z,18.02
2022-08-09T03:59:55.977Z,17.96
2022-08-09T04:00:53.656Z,17.84
2022-08-09T04:01:53.536Z,17.88
2022-08-09T04:02:53.619Z,17.88
2022-08-09T04:04:02.177Z,17.87
2022-08-09T04:04:53.492Z,17.91
2022-08-09T04:05:53.471Z,17.76
2022-08-09T04:06:53.457Z,17.78
2022-08-09T04:07:56.954Z,17.83
2022-08-09T04:08:53.579Z,17.81
2022-08-09T04:09:53.850Z,17.81
2022-08-09T04:10:53.389Z,17.79
2022-08-09T04:11:53.375Z,17.81
2022-08-09T04:12:53.429Z,17.71
2022-08-09T04:14:54.177Z,17.78
2022-08-09T04:15:01.873Z,17.81
2022-08-09T04:16:19.219Z,17.78
2022-08-09T04:16:53.289Z,17.76
2022-08-09T04:17:53.271Z,17.84
2022-08-09T04:18:53.254Z,17.73
2022-08-09T04:19:56.009Z,17.76
2022-08-09T04:20:53.220Z,17.83
2022-08-09T04:21:53.210Z,17.81
2022-08-09T04:22:53.195Z,17.78
2022-08-09T04:23:54.330Z,17.73
2022-08-09T04:24:53.168Z,17.75
2022-08-09T04:25:53.334Z,17.83
2022-08-09T04:26:53.124Z,17.76
2022-08-09T04:27:53.111Z,17.81
2022-08-09T04:28:58.252Z,17.72
2022-08-09T04:29:53.075Z,17.72
2022-08-09T04:30:53.063Z,17.71
2022-08-09T04:31:53.044Z,17.72
2022-08-09T04:32:54.212Z,17.66
2022-08-09T04:33:56.766Z,17.66
2022-08-09T04:34:54.308Z,17.73
2022-08-09T04:35:52.969Z,17.81
2022-08-09T04:36:52.960Z,17.73
2022-08-09T04:37:52.951Z,17.83
2022-08-09T04:38:52.928Z,17.75
2022-08-09T04:39:52.917Z,17.81
2022-08-09T04:40:56.077Z,17.84
2022-08-09T04:41:52.880Z,17.83
2022-08-09T04:42:52.868Z,17.90
2022-08-09T04:44:04.916Z,17.93
2022-08-09T04:44:52.825Z,17.90
2022-08-09T04:45:53.592Z,17.91
2022-08-09T04:46:58.539Z,18.01
2022-08-09T04:48:01.132Z,18.05
2022-08-09T04:48:58.287Z,18.01
2022-08-09T04:49:55.504Z,18.02
2022-08-09T04:50:52.730Z,18.06
2022-08-09T04:51:52.715Z,18.06
2022-08-09T04:52:52.695Z,17.84
2022-08-09T04:53:58.363Z,17.87
2022-08-09T04:54:52.658Z,17.96
2022-08-09T04:55:52.643Z,17.99
2022-08-09T04:56:52.629Z,18.03
2022-08-09T04:57:58.428Z,18.09
2022-08-09T04:58:52.594Z,18.02
2022-08-09T04:59:52.581Z,18.12
2022-08-09T05:00:52.566Z,18.13
2022-08-09T05:01:52.547Z,18.03
2022-08-09T05:02:53.149Z,18.05
2022-08-09T05:03:58.512Z,18.13
2022-08-09T05:04:55.230Z,18.02
2022-08-09T05:06:04.505Z,18.12
2022-08-09T05:06:52.464Z,18.08
2022-08-09T05:07:53.256Z,18.05
2022-08-09T05:08:52.428Z,18.01
2022-08-09T05:09:52.425Z,18.01
2022-08-09T05:10:52.400Z,18.11
2022-08-09T05:11:52.377Z,18.02
2022-08-09T05:12:52.364Z,18.12
2022-08-09T05:13:54.968Z,18.13
2022-08-09T05:14:52.329Z,18.12
2022-08-09T05:15:56.676Z,18.17
2022-08-09T05:16:59.182Z,18.24
2022-08-09T05:18:55.160Z,18.20
2022-08-09T05:18:58.675Z,18.21
2022-08-09T05:19:56.666Z,18.27
2022-08-09T05:20:52.233Z,18.31
2022-08-09T05:21:55.478Z,18.30
2022-08-09T05:23:54.237Z,18.26
2022-08-09T05:23:58.018Z,18.33
2022-08-09T05:24:52.168Z,18.33
2022-08-09T05:25:52.150Z,18.39
2022-08-09T05:26:52.133Z,18.31
2022-08-09T05:27:52.117Z,18.38
2022-08-09T05:28:52.244Z,18.27
2022-08-09T05:29:52.087Z,18.36
2022-08-09T05:30:52.069Z,18.33
2022-08-09T05:31:56.636Z,18.33
2022-08-09T05:32:53.315Z,18.41
2022-08-09T05:33:52.022Z,18.43
2022-08-09T05:34:52.006Z,18.54
2022-08-09T05:35:51.986Z,18.52
2022-08-09T05:36:51.972Z,18.57
2022-08-09T05:37:51.954Z,18.56
2022-08-09T05:38:51.950Z,18.64
2022-08-09T05:39:51.966Z,18.67
2022-08-09T05:40:51.910Z,18.60
2022-08-09T05:41:51.890Z,18.56
2022-08-09T05:42:51.881Z,18.57
2022-08-09T05:43:51.865Z,18.57
2022-08-09T05:44:52.199Z,18.63
2022-08-09T05:45:57.185Z,18.63
2022-08-09T05:46:51.815Z,18.60
2022-08-09T05:47:54.284Z,18.64
2022-08-09T05:48:58.988Z,18.68
2022-08-09T05:50:23.784Z,18.66
2022-08-09T05:51:11.980Z,18.79
2022-08-09T05:51:51.731Z,18.76
2022-08-09T05:52:53.338Z,18.75
2022-08-09T05:53:57.814Z,18.83
2022-08-09T05:54:51.679Z,18.91
2022-08-09T05:55:53.142Z,18.94
2022-08-09T05:56:55.302Z,18.89
2022-08-09T05:57:56.613Z,18.89
2022-08-09T05:58:54.876Z,18.96
2022-08-09T05:59:51.606Z,19.01
2022-08-09T06:00:51.590Z,19.00
2022-08-09T06:01:51.575Z,19.01
2022-08-09T06:02:54.505Z,19.09
2022-08-09T06:03:58.026Z,19.08
2022-08-09T06:04:51.523Z,19.08
2022-08-09T06:06:04.465Z,19.16
2022-08-09T06:06:51.817Z,19.17
2022-08-09T06:08:05.303Z,19.13
2022-08-09T06:08:52.803Z,19.20
2022-08-09T06:09:54.598Z,19.20
2022-08-09T06:10:51.468Z,19.17
2022-08-09T06:11:57.787Z,19.30
2022-08-09T06:13:03.107Z,19.26
2022-08-09T06:13:51.383Z,19.30
2022-08-09T06:14:51.369Z,19.24
2022-08-09T06:15:52.648Z,19.35
2022-08-09T06:16:52.107Z,19.32
2022-08-09T06:17:51.318Z,19.39
2022-08-09T06:18:51.305Z,19.37
2022-08-09T06:19:51.289Z,19.38
2022-08-09T06:20:54.866Z,19.44
2022-08-09T06:21:58.208Z,19.52
2022-08-09T06:22:51.247Z,19.53
2022-08-09T06:23:54.988Z,19.52
2022-08-09T06:24:51.211Z,19.49
2022-08-09T06:25:55.319Z,19.60
2022-08-09T06:26:51.176Z,19.62
2022-08-09T06:27:51.846Z,19.71
2022-08-09T06:29:00.637Z,19.84
2022-08-09T06:30:04.313Z,19.79
2022-08-09T06:30:51.117Z,19.92
2022-08-09T06:32:08.737Z,19.87
2022-08-09T06:33:13.561Z,19.90
2022-08-09T06:33:53.052Z,19.93
2022-08-09T06:34:53.169Z,19.99
2022-08-09T06:35:56.927Z,20.05
2022-08-09T06:36:51.026Z,20.11
2022-08-09T06:38:06.083Z,20.14
2022-08-09T06:38:51.007Z,20.19
2022-08-09T06:39:59.838Z,20.22
2022-08-09T06:40:54.967Z,20.23
2022-08-09T06:42:11.313Z,20.36
2022-08-09T06:42:50.937Z,20.39
2022-08-09T06:43:50.931Z,20.42
2022-08-09T06:44:54.294Z,20.44
2022-08-09T06:46:06.339Z,20.55
2022-08-09T06:46:50.876Z,20.52
2022-08-09T06:48:00.684Z,20.53
2022-08-09T06:48:50.843Z,20.61
2022-08-09T06:50:14.340Z,20.60
2022-08-09T06:50:50.811Z,20.63
2022-08-09T06:51:50.800Z,20.74
2022-08-09T06:52:50.779Z,20.67
2022-08-09T06:53:50.770Z,20.71
2022-08-09T06:54:50.783Z,20.89
2022-08-09T06:55:50.738Z,20.95
2022-08-09T06:56:50.729Z,20.89
2022-08-09T06:58:01.797Z,21.04
2022-08-09T07:00:49.732Z,21.03
2022-08-09T07:00:51.343Z,21.07
2022-08-09T07:00:58.507Z,21.14
2022-08-09T07:01:54.014Z,21.11
2022-08-09T07:02:50.656Z,21.14
2022-08-09T07:03:51.797Z,21.23
2022-08-09T07:04:50.607Z,21.25
2022-08-09T07:05:58.419Z,21.34
2022-08-09T07:06:53.485Z,21.38
2022-08-09T07:08:00.932Z,21.37
2022-08-09T07:08:50.554Z,21.43
2022-08-09T07:09:54.931Z,21.41
2022-08-09T07:10:50.527Z,21.41
2022-08-09T07:11:53.410Z,21.55
2022-08-09T07:12:57.421Z,21.56
2022-08-09T07:14:05.884Z,21.59
2022-08-09T07:14:51.380Z,21.67
2022-08-09T07:16:39.013Z,21.63
2022-08-09T07:16:55.317Z,21.74
2022-08-09T07:17:56.054Z,21.78
2022-08-09T07:18:50.410Z,21.75
2022-08-09T07:19:50.878Z,21.93
2022-08-09T07:20:50.380Z,21.96
2022-08-09T07:21:57.375Z,21.91
2022-08-09T07:22:53.465Z,21.85
2022-08-09T07:23:56.331Z,22.01
2022-08-09T07:24:50.321Z,21.98
2022-08-09T07:25:52.137Z,22.18
2022-08-09T07:26:50.913Z,22.15
2022-08-09T07:27:53.154Z,22.30
2022-08-09T07:29:08.934Z,22.38
2022-08-09T07:29:50.255Z,22.55
2022-08-09T07:30:50.242Z,22.59
2022-08-09T07:31:50.230Z,22.59
2022-08-09T07:32:51.581Z,22.66
2022-08-09T07:33:53.283Z,22.77
2022-08-09T07:34:52.225Z,22.76
2022-08-09T07:35:54.182Z,22.83
2022-08-09T07:36:50.160Z,22.91
2022-08-09T07:37:50.150Z,23.03
2022-08-09T07:38:56.828Z,23.25
2022-08-09T07:39:50.202Z,23.33
2022-08-09T07:41:00.947Z,23.46
2022-08-09T07:41:50.096Z,23.60
2022-08-09T07:42:50.267Z,23.63
2022-08-09T07:43:56.489Z,23.71
2022-08-09T07:44:51.750Z,23.85
2022-08-09T07:45:50.057Z,23.85
2022-08-09T07:46:50.045Z,23.96
2022-08-09T07:48:01.444Z,24.08
2022-08-09T07:48:58.944Z,24.18
2022-08-09T07:50:05.131Z,24.33
2022-08-09T07:50:53.066Z,24.40
2022-08-09T07:52:04.834Z,24.56
2022-08-09T07:52:49.992Z,24.79
2022-08-09T07:54:05.321Z,24.94
2022-08-09T07:54:51.585Z,25.22
2022-08-09T07:56:03.214Z,25.48
2022-08-09T07:56:50.240Z,25.82
2022-08-09T07:57:49.954Z,26.23
2022-08-09T07:58:49.951Z,26.65
2022-08-09T07:59:52.145Z,27.12
2022-08-09T08:00:55.482Z,27.61
2022-08-09T08:01:53.303Z,28.06
2022-08-09T08:02:49.930Z,28.57
2022-08-09T08:03:49.938Z,28.96
2022-08-09T08:04:53.815Z,29.29
2022-08-09T08:05:57.727Z,29.73
2022-08-09T08:06:55.930Z,29.89
2022-08-09T08:08:42.879Z,29.74
2022-08-09T08:09:04.006Z,29.99
2022-08-09T08:10:07.894Z,30.21
2022-08-09T08:11:03.225Z,30.52
2022-08-09T08:12:09.918Z,30.95
2022-08-09T08:12:49.897Z,31.44
2022-08-09T08:13:57.148Z,31.61
2022-08-09T08:14:49.901Z,31.97
2022-08-09T08:15:49.900Z,32.32
2022-08-09T08:17:00.859Z,32.45
2022-08-09T08:17:54.904Z,32.83
2022-08-09T08:18:49.898Z,32.80
2022-08-09T08:19:49.890Z,33.07
2022-08-09T08:20:49.902Z,33.22
2022-08-09T08:21:50.903Z,33.55
2022-08-09T08:22:49.897Z,33.41
2022-08-09T08:23:55.719Z,33.48
2022-08-09T08:24:50.992Z,33.71
2022-08-09T08:26:06.253Z,33.70
2022-08-09T08:26:54.954Z,34.06
2022-08-09T08:27:50.060Z,34.25
2022-08-09T08:28:49.906Z,34.56
2022-08-09T08:29:52.376Z,34.45
2022-08-09T08:30:49.915Z,34.25
2022-08-09T08:32:03.619Z,34.41
2022-08-09T08:32:53.659Z,34.35
2022-08-09T08:33:53.436Z,34.42
2022-08-09T08:34:51.806Z,34.70
2022-08-09T08:35:59.898Z,34.72
2022-08-09T08:36:49.929Z,34.85
2022-08-09T08:38:02.188Z,35.10
2022-08-09T08:38:49.922Z,35.35
2022-08-09T08:39:50.004Z,35.26
2022-08-09T08:40:49.922Z,35.31
2022-08-09T08:41:51.691Z,35.53
2022-08-09T08:42:49.929Z,35.47
2022-08-09T08:43:49.935Z,35.34
2022-08-09T08:44:49.932Z,35.14
2022-08-09T08:45:51.631Z,35.29
2022-08-09T08:46:59.906Z,35.54
2022-08-09T08:47:49.948Z,35.90
2022-08-09T08:48:51.776Z,35.98
2022-08-09T08:49:49.945Z,35.97
2022-08-09T08:50:51.894Z,35.83
2022-08-09T08:52:01.823Z,35.94
2022-08-09T08:52:58.123Z,36.19
2022-08-09T08:54:03.926Z,36.30
2022-08-09T08:54:49.971Z,36.27
2022-08-09T08:55:52.385Z,36.36
2022-08-09T08:56:49.975Z,36.33
2022-08-09T08:57:57.126Z,36.47
2022-08-09T08:58:49.976Z,36.40
2022-08-09T08:59:53.804Z,36.83
2022-08-09T09:00:54.417Z,36.91
2022-08-09T09:01:54.772Z,37.13
2022-08-09T09:02:52.569Z,37.15
2022-08-09T09:03:50.530Z,37.10
2022-08-09T09:04:52.977Z,37.51
2022-08-09T09:05:59.820Z,37.44
2022-08-09T09:06:50.009Z,37.70
2022-08-09T09:07:50.008Z,37.70
2022-08-09T09:08:52.345Z,37.51
2022-08-09T09:10:01.877Z,37.70
2022-08-09T09:10:50.016Z,37.79
2022-08-09T09:11:50.020Z,38.02
2022-08-09T09:12:50.022Z,38.14
2022-08-09T09:13:57.377Z,37.99
2022-08-09T09:14:50.037Z,38.08
2022-08-09T09:15:50.029Z,38.01
2022-08-09T09:16:50.037Z,38.16
2022-08-09T09:17:52.876Z,38.29
2022-08-09T09:19:02.683Z,38.11
2022-08-09T09:19:50.043Z,38.20
2022-08-09T09:20:50.045Z,38.35
2022-08-09T09:21:50.047Z,38.01
2022-08-09T09:22:50.048Z,37.92
2022-08-09T09:23:57.509Z,38.01
2022-08-09T09:24:50.050Z,38.06
2022-08-09T09:26:02.524Z,37.79
2022-08-09T09:26:50.053Z,37.76
2022-08-09T09:28:03.808Z,37.83
2022-08-09T09:29:04.232Z,37.49
2022-08-09T09:30:50.059Z,38.08
2022-08-09T09:32:03.605Z,38.45
2022-08-09T09:32:50.061Z,38.99
2022-08-09T09:33:57.031Z,39.38
2022-08-09T09:34:50.060Z,39.82
2022-08-09T09:36:00.533Z,39.83
2022-08-09T09:36:54.264Z,40.17
2022-08-09T09:37:50.057Z,40.35
2022-08-09T09:38:50.057Z,40.56
2022-08-09T09:39:54.876Z,40.67
2022-08-09T09:40:50.061Z,40.68
2022-08-09T09:41:50.062Z,40.65
2022-08-09T09:42:50.053Z,40.67
2022-08-09T09:44:11.023Z,40.33
2022-08-09T09:44:50.057Z,40.07
2022-08-09T09:45:57.652Z,39.98
2022-08-09T09:46:51.799Z,39.79
2022-08-09T09:47:58.655Z,39.80
2022-08-09T09:48:50.054Z,40.02
2022-08-09T09:50:13.268Z,40.10
2022-08-09T09:50:51.305Z,40.25
2022-08-09T09:51:51.342Z,40.21
2022-08-09T09:52:53.485Z,40.41
2022-08-09T09:54:00.879Z,40.38
2022-08-09T09:54:55.673Z,40.08
2022-08-09T09:55:50.038Z,39.99
2022-08-09T09:58:00.656Z,39.76
2022-08-09T09:58:00.820Z,39.38
2022-08-09T09:58:50.029Z,39.55
2022-08-09T09:59:52.271Z,39.57
2022-08-09T10:00:54.246Z,39.36
2022-08-09T10:01:50.023Z,39.54
2022-08-09T10:02:50.024Z,39.42
2022-08-09T10:03:58.201Z,39.42
2022-08-09T10:04:50.030Z,39.61
2022-08-09T10:06:03.745Z,39.74
2022-08-09T10:06:51.876Z,39.79
2022-08-09T10:08:11.056Z,39.89
2022-08-09T10:08:57.217Z,39.77
2022-08-09T10:09:54.810Z,39.77
2022-08-09T10:10:49.994Z,39.62
2022-08-09T10:11:59.104Z,39.53
2022-08-09T10:12:51.888Z,39.39
2022-08-09T10:13:50.335Z,39.35
2022-08-09T10:14:51.367Z,39.27
2022-08-09T10:16:08.802Z,39.28
2022-08-09T10:16:56.722Z,39.16
2022-08-09T10:17:56.429Z,38.89
2022-08-09T10:18:51.367Z,38.84
2022-08-09T10:19:52.941Z,38.81
2022-08-09T10:20:49.947Z,38.47
2022-08-09T10:21:49.941Z,38.57
2022-08-09T10:22:49.942Z,38.88
2022-08-09T10:23:49.930Z,39.02
2022-08-09T10:24:50.074Z,38.98
2022-08-09T10:26:07.447Z,38.98
2022-08-09T10:26:49.918Z,38.99
2022-08-09T10:27:57.291Z,38.98
2022-08-09T10:29:31.382Z,38.81
2022-08-09T10:30:43.892Z,38.47
2022-08-09T10:32:50.126Z,38.07
2022-08-09T10:34:10.893Z,37.80
2022-08-09T10:34:49.871Z,37.61
2022-08-09T10:35:49.869Z,37.49
2022-08-09T10:36:49.868Z,37.19
2022-08-09T10:37:51.798Z,37.01
2022-08-09T10:38:55.851Z,36.76
2022-08-09T10:39:49.972Z,36.54
2022-08-09T10:40:50.085Z,36.40
2022-08-09T10:41:49.827Z,36.32
2022-08-09T10:42:52.943Z,36.35
2022-08-09T10:44:01.068Z,36.20
2022-08-09T10:44:49.808Z,36.03
2022-08-09T10:45:59.934Z,35.81
2022-08-09T10:46:57.339Z,35.69
2022-08-09T10:48:20.357Z,35.47
2022-08-09T10:48:52.240Z,35.26
2022-08-09T10:49:54.306Z,35.19
2022-08-09T10:50:49.770Z,35.09
2022-08-09T10:51:52.967Z,34.83
2022-08-09T10:52:49.752Z,34.56
2022-08-09T10:53:54.816Z,34.50
2022-08-09T10:54:50.088Z,34.64
2022-08-09T10:55:58.905Z,34.53
2022-08-09T10:56:49.735Z,34.64
2022-08-09T10:57:51.990Z,34.50
2022-08-09T10:58:49.728Z,34.20
2022-08-09T10:59:57.828Z,34.13
2022-08-09T11:00:56.868Z,33.84
2022-08-09T11:03:11.444Z,33.57
2022-08-09T11:03:15.572Z,33.71
2022-08-09T11:03:53.085Z,33.55
2022-08-09T11:04:55.494Z,33.60
2022-08-09T11:06:00.375Z,33.60
2022-08-09T11:06:49.679Z,33.42
2022-08-09T11:07:55.828Z,33.36
2022-08-09T11:08:53.136Z,33.24
2022-08-09T11:09:49.646Z,33.01
2022-08-09T11:10:54.674Z,32.85
2022-08-09T11:11:51.687Z,32.87
2022-08-09T11:12:49.613Z,32.87
2022-08-09T11:13:54.428Z,32.87
2022-08-09T11:14:49.604Z,32.82
2022-08-09T11:15:51.247Z,32.80
2022-08-09T11:16:49.588Z,32.88
2022-08-09T11:17:53.494Z,32.87
2022-08-09T11:18:49.572Z,32.82
2022-08-09T11:20:11.383Z,32.91
2022-08-09T11:20:50.080Z,32.87
2022-08-09T11:21:57.337Z,32.85
2022-08-09T11:22:57.019Z,32.88
2022-08-09T11:23:49.533Z,32.88
2022-08-09T11:24:49.536Z,32.92
2022-08-09T11:25:49.520Z,32.73
2022-08-09T11:26:54.611Z,32.53
2022-08-09T11:28:04.791Z,32.27
2022-08-09T11:28:55.916Z,32.31
2022-08-09T11:30:01.150Z,32.42
2022-08-09T11:30:49.488Z,32.51
2022-08-09T11:31:52.654Z,32.55
2022-08-09T11:32:49.466Z,32.73
2022-08-09T11:33:50.377Z,32.63
2022-08-09T11:34:51.632Z,32.61
2022-08-09T11:35:51.777Z,32.51
2022-08-09T11:36:49.434Z,32.63
2022-08-09T11:37:49.869Z,32.63
2022-08-09T11:38:49.427Z,32.64
2022-08-09T11:39:49.503Z,32.64
2022-08-09T11:40:49.402Z,32.70
2022-08-09T11:41:49.398Z,32.61
2022-08-09T11:42:49.388Z,32.55
2022-08-09T11:43:49.414Z,32.50
2022-08-09T11:44:49.377Z,32.50
2022-08-09T11:45:49.363Z,32.43
2022-08-09T11:46:49.357Z,32.48
2022-08-09T11:47:49.361Z,32.55
2022-08-09T11:48:49.342Z,32.65
2022-08-09T11:50:55.760Z,32.72
2022-08-09T11:50:56.870Z,32.73
2022-08-09T11:53:15.315Z,32.70
2022-08-09T11:53:16.333Z,32.65
2022-08-09T11:54:00.721Z,32.70
2022-08-09T11:54:49.297Z,32.69
2022-08-09T11:55:53.203Z,32.82
2022-08-09T11:56:49.284Z,32.83
2022-08-09T11:58:00.561Z,32.68
2022-08-09T11:58:50.293Z,32.61
2022-08-09T11:59:52.266Z,32.45
2022-08-09T12:00:49.920Z,32.36
2022-08-09T12:02:17.379Z,32.43
2022-08-09T12:02:49.372Z,32.31
2022-08-09T12:03:56.990Z,32.36
2022-08-09T12:04:49.292Z,32.27
2022-08-09T12:05:49.211Z,32.27
2022-08-09T12:06:49.293Z,32.19
2022-08-09T12:07:49.197Z,32.17
2022-08-09T12:08:49.197Z,32.21
2022-08-09T12:09:51.074Z,32.20
2022-08-09T12:10:49.177Z,32.17
2022-08-09T12:12:03.163Z,32.27
2022-08-09T12:12:49.169Z,32.35
2022-08-09T12:14:08.035Z,32.32
2022-08-09T12:15:03.933Z,32.42
2022-08-09T12:15:52.181Z,32.51
2022-08-09T12:16:49.150Z,32.45
2022-08-09T12:17:53.389Z,32.45
2022-08-09T12:18:53.927Z,32.35
2022-08-09T12:19:50.779Z,32.31
2022-08-09T12:20:49.099Z,32.13
2022-08-09T12:21:51.167Z,31.97
2022-08-09T12:22:50.293Z,32.01
2022-08-09T12:24:06.426Z,31.99
2022-08-09T12:24:49.075Z,31.99
2022-08-09T12:25:49.943Z,31.99
2022-08-09T12:28:58.185Z,32.01
2022-08-09T12:29:10.892Z,32.04
2022-08-09T12:29:11.530Z,32.02
2022-08-09T12:29:54.552Z,32.04
2022-08-09T12:30:49.029Z,32.02
2022-08-09T12:32:02.507Z,31.99
2022-08-09T12:32:49.007Z,31.89
2022-08-09T12:33:58.754Z,31.94
2022-08-09T12:34:48.993Z,31.84
2022-08-09T12:35:48.985Z,31.75
2022-08-09T12:36:48.984Z,31.64
2022-08-09T12:37:51.648Z,31.68
2022-08-09T12:38:48.963Z,31.81
2022-08-09T12:39:49.072Z,31.81
2022-08-09T12:40:51.830Z,31.71
2022-08-09T12:41:48.941Z,31.79
2022-08-09T12:42:50.558Z,31.70
2022-08-09T12:44:05.341Z,31.54
2022-08-09T12:44:52.311Z,31.51
2022-08-09T12:46:00.174Z,31.48
2022-08-09T12:46:50.063Z,31.48
2022-08-09T12:47:50.307Z,31.41
2022-08-09T12:48:48.884Z,31.48
2022-08-09T12:49:51.094Z,31.46
2022-08-09T12:50:48.871Z,31.63
2022-08-09T12:52:00.886Z,31.61
2022-08-09T12:53:08.218Z,31.64
2022-08-09T12:53:52.610Z,31.86
2022-08-09T12:55:03.183Z,31.95